Time;durP1;ratioP1;P1;durP2;ratioP2;P2;SDS_P1;SDS_P2;PMS_P1;PMS_P2;Temp;Humidity;BMP_temperature;BMP_pressure;BME280_temperature;BME280_humidity;BME280_pressure;Samples;Min_cycle;Max_cycle;Signal;HPM_P1;HPM_P2
2022/07/14 00:02:11;;;;;;;3.25;0.77;;;;;;;19.90;53.43;101250.56;6124200;23;20504;-85
2022/07/14 00:04:36;;;;;;;2.40;0.82;;;;;;;19.83;52.84;101252.13;6124241;23;20414;-84
2022/07/14 00:07:01;;;;;;;4.28;1.05;;;;;;;19.76;52.58;101242.03;6125128;23;20016;-84
2022/07/14 00:09:27;;;;;;;4.13;0.90;;;;;;;19.77;51.92;101246.41;6124667;23;20421;-84
2022/07/14 00:11:52;;;;;;;4.15;0.73;;;;;;;19.70;53.13;101247.09;6124674;23;20009;-85
2022/07/14 00:14:17;;;;;;;2.85;0.80;;;;;;;19.53;52.22;101246.84;6124496;23;20002;-84
2022/07/14 00:16:43;;;;;;;3.50;0.57;;;;;;;19.40;52.30;101252.44;6124380;23;20006;-84
2022/07/14 00:19:08;;;;;;;4.78;0.95;;;;;;;19.59;51.96;101243.59;6123873;23;20089;-84
2022/07/14 00:21:34;;;;;;;2.55;0.65;;;;;;;19.63;51.87;101244.16;6124229;23;20006;-84
2022/07/14 00:23:59;;;;;;;1.13;0.70;;;;;;;19.54;51.53;101243.19;6124388;23;20005;-84
2022/07/14 00:26:24;;;;;;;2.83;0.50;;;;;;;19.57;52.47;101258.06;6124627;23;20002;-84
2022/07/14 00:28:50;;;;;;;2.75;0.70;;;;;;;19.46;54.29;101250.22;6124750;23;20086;-84
2022/07/14 00:31:16;;;;;;;1.98;0.60;;;;;;;19.46;53.59;101250.22;6123884;23;20012;-84
2022/07/14 00:33:41;;;;;;;2.28;0.60;;;;;;;19.32;52.98;101252.31;6123782;23;20085;-85
2022/07/14 00:36:08;;;;;;;7.60;0.80;;;;;;;19.30;54.03;101251.63;6124529;23;20038;-85
2022/07/14 00:38:34;;;;;;;1.55;0.50;;;;;;;19.29;54.54;101255.25;6124567;23;20010;-85
2022/07/14 00:40:59;;;;;;;2.92;0.70;;;;;;;19.20;52.98;101250.78;6124238;23;20357;-85
2022/07/14 00:43:25;;;;;;;2.72;0.60;;;;;;;19.06;54.21;101262.69;6124369;23;20009;-84
2022/07/14 00:45:50;;;;;;;0.88;0.82;;;;;;;18.94;54.57;101251.31;6124476;23;20009;-85
2022/07/14 00:48:19;;;;;;;5.28;0.50;;;;;;;18.90;54.45;101254.38;6124037;23;20544;-85
2022/07/14 00:50:45;;;;;;;3.70;1.25;;;;;;;18.78;56.71;101251.81;6124551;23;20006;-85
2022/07/14 00:53:12;;;;;;;2.53;0.60;;;;;;;18.72;55.62;101249.72;6126027;23;20040;-85
2022/07/14 00:55:42;;;;;;;1.88;0.32;;;;;;;18.69;57.35;101247.31;6125955;23;20002;-85
2022/07/14 00:58:07;;;;;;;1.90;0.50;;;;;;;18.47;56.18;101255.53;6126238;23;20057;-86
2022/07/14 01:00:33;;;;;;;1.95;0.43;;;;;;;18.49;56.24;101250.91;6126209;23;20345;-85
2022/07/14 01:02:58;;;;;;;1.73;0.68;;;;;;;18.47;58.02;101258.19;6126007;23;19998;-85
2022/07/14 01:05:24;;;;;;;2.50;0.50;;;;;;;18.33;57.76;101257.56;6126163;23;20002;-85
2022/07/14 01:07:49;;;;;;;1.70;0.55;;;;;;;18.32;56.69;101250.56;6125690;23;20005;-86
2022/07/14 01:10:15;;;;;;;1.55;0.45;;;;;;;18.26;57.95;101255.56;6125626;23;20081;-85
2022/07/14 01:12:45;;;;;;;1.08;0.50;;;;;;;18.28;58.21;101257.13;6126255;23;20049;-86
2022/07/14 01:15:11;;;;;;;1.88;0.50;;;;;;;18.20;58.71;101255.13;6126613;23;20012;-83
2022/07/14 01:17:37;;;;;;;1.25;0.70;;;;;;;18.11;58.79;101258.59;6125893;23;20307;-84
2022/07/14 01:20:04;;;;;;;1.50;0.60;;;;;;;18.10;58.53;101254.25;6126051;23;20033;-84
2022/07/14 01:22:30;;;;;;;0.82;0.50;;;;;;;18.00;59.89;101253.34;6125858;23;20057;-84
2022/07/14 01:24:55;;;;;;;0.60;0.47;;;;;;;17.83;59.77;101262.72;6125320;23;20010;-84
2022/07/14 01:27:20;;;;;;;0.60;0.40;;;;;;;17.76;58.64;101259.75;6124038;23;20009;-85
2022/07/14 01:29:46;;;;;;;2.47;0.60;;;;;;;17.73;60.40;101259.16;6125611;23;20133;-86
2022/07/14 01:32:11;;;;;;;12.57;2.22;;;;;;;17.75;60.72;101268.72;6125478;23;19998;-86
2022/07/14 01:34:37;;;;;;;1.80;0.73;;;;;;;17.73;60.44;101265.34;6125408;23;20080;-86
2022/07/14 01:37:02;;;;;;;1.35;0.52;;;;;;;17.70;60.06;101273.56;6125954;23;20077;-86
2022/07/14 01:39:27;;;;;;;2.47;0.63;;;;;;;17.68;59.95;101269.34;6125263;23;20014;-86
2022/07/14 01:41:53;;;;;;;2.08;0.93;;;;;;;17.62;60.11;101271.56;6125620;23;20002;-86
2022/07/14 01:44:18;;;;;;;1.67;0.50;;;;;;;17.50;60.76;101264.63;6125929;23;20006;-86
2022/07/14 01:46:43;;;;;;;1.42;0.73;;;;;;;17.45;60.69;101270.28;6125810;23;20006;-86
2022/07/14 01:49:09;;;;;;;0.63;0.45;;;;;;;17.39;61.73;101267.31;6125529;23;20033;-86
2022/07/14 01:51:35;;;;;;;4.03;0.50;;;;;;;17.38;60.73;101270.97;6125666;23;20306;-86
2022/07/14 01:54:01;;;;;;;2.30;0.57;;;;;;;17.39;61.75;101268.16;6121833;23;20010;-85
2022/07/14 01:56:26;;;;;;;2.67;0.57;;;;;;;17.22;62.29;101255.47;6124692;23;20029;-86
2022/07/14 01:58:52;;;;;;;1.17;0.50;;;;;;;17.23;61.62;101271.22;6125415;23;20010;-86
2022/07/14 02:04:02;;;;;;;2.38;0.70;;;;;;;17.15;59.58;101270.19;6125015;23;20012;-85
2022/07/14 02:06:27;;;;;;;2.55;0.50;;;;;;;17.14;60.36;101263.19;6125617;23;20081;-85
2022/07/14 02:08:52;;;;;;;3.00;0.60;;;;;;;17.03;60.16;101272.03;6125353;23;20040;-87
2022/07/14 02:14:03;;;;;;;2.85;0.68;;;;;;;17.08;60.91;101269.00;6125579;23;20021;-86
2022/07/14 02:16:29;;;;;;;4.13;0.60;;;;;;;17.18;60.14;101270.78;6125662;23;19999;-85
2022/07/14 02:18:55;;;;;;;0.52;0.50;;;;;;;17.09;59.93;101274.19;6125521;23;20013;-85
2022/07/14 02:21:20;;;;;;;3.42;0.75;;;;;;;17.22;59.62;101276.69;6125343;23;20006;-85
2022/07/14 02:23:45;;;;;;;2.88;0.98;;;;;;;17.29;59.44;101261.94;6125622;23;20002;-85
2022/07/14 02:26:14;;;;;;;1.25;0.50;;;;;;;17.33;59.74;101268.66;6123953;23;20009;-85
2022/07/14 02:28:41;;;;;;;3.22;0.75;;;;;;;17.32;59.87;101272.31;6124976;23;20006;-85
2022/07/14 02:31:09;;;;;;;0.70;0.40;;;;;;;17.29;59.71;101269.88;6125290;23;20013;-85
2022/07/14 02:33:34;;;;;;;5.07;0.60;;;;;;;17.25;58.84;101268.47;6125069;23;20060;-86
2022/07/14 02:36:00;;;;;;;4.60;0.40;;;;;;;17.26;58.97;101272.81;6125209;23;20054;-86
2022/07/14 02:38:25;;;;;;;0.50;0.47;;;;;;;17.10;59.18;101275.03;6125158;23;20002;-86
2022/07/14 02:40:50;;;;;;;1.98;0.80;;;;;;;17.13;59.92;101272.97;6124470;23;20376;-86
2022/07/14 02:43:16;;;;;;;1.65;0.40;;;;;;;17.13;59.86;101267.66;6124760;23;20010;-86
2022/07/14 02:45:41;;;;;;;1.75;1.15;;;;;;;17.14;60.34;101263.19;6125193;23;20033;-85
2022/07/14 02:48:07;;;;;;;2.35;0.70;;;;;;;17.18;59.88;101269.94;6125166;23;20006;-86
2022/07/14 02:50:32;;;;;;;0.75;0.50;;;;;;;17.00;59.38;101275.78;6125043;23;20314;-87
2022/07/14 02:52:58;;;;;;;4.78;0.80;;;;;;;17.06;60.12;101271.78;6124989;23;20002;-86
2022/07/14 02:55:23;;;;;;;1.92;1.05;;;;;;;17.04;60.14;101279.88;6124282;23;20005;-87
2022/07/14 02:57:48;;;;;;;1.33;0.45;;;;;;;17.09;60.93;101279.50;6124961;23;20010;-86
2022/07/14 03:00:14;;;;;;;3.70;1.30;;;;;;;17.08;60.24;101274.31;6125309;23;20532;-87
2022/07/14 03:02:40;;;;;;;2.17;0.60;;;;;;;17.00;61.88;101280.22;6124854;23;20480;-87
2022/07/14 03:05:06;;;;;;;1.85;0.60;;;;;;;16.88;62.57;101273.28;6124866;23;20036;-86
2022/07/14 03:07:31;;;;;;;1.63;0.63;;;;;;;16.78;63.46;101281.94;6124489;23;20002;-86
2022/07/14 03:09:56;;;;;;;3.20;0.77;;;;;;;16.76;63.84;101285.69;6124910;23;20006;-86
2022/07/14 03:12:22;;;;;;;2.28;0.75;;;;;;;16.74;64.21;101283.16;6124734;23;20002;-87
2022/07/14 03:14:48;;;;;;;2.13;0.68;;;;;;;16.58;63.00;101283.53;6124572;23;20012;-86
2022/07/14 03:17:14;;;;;;;1.55;0.70;;;;;;;16.53;63.10;101280.41;6124482;23;20246;-85
2022/07/14 03:19:40;;;;;;;3.33;1.02;;;;;;;16.53;63.10;101276.91;6124645;23;20037;-85
2022/07/14 03:22:06;;;;;;;2.42;0.70;;;;;;;16.44;63.75;101283.78;6124049;23;20053;-86
2022/07/14 03:24:31;;;;;;;1.02;0.52;;;;;;;16.44;64.26;101291.72;6124769;23;20081;-87
2022/07/14 03:26:58;;;;;;;2.13;0.80;;;;;;;16.40;64.58;101280.53;6124870;23;20421;-87
2022/07/14 03:29:23;;;;;;;1.17;0.70;;;;;;;16.41;64.13;101286.66;6125147;23;20370;-86
2022/07/14 03:31:48;;;;;;;2.78;0.60;;;;;;;16.28;64.46;101286.78;6124850;23;20026;-88
2022/07/14 03:34:14;;;;;;;1.98;0.70;;;;;;;16.20;65.32;101279.44;6124723;23;20341;-88
2022/07/14 03:36:39;;;;;;;1.30;0.60;;;;;;;16.16;66.36;101285.94;6122605;23;20157;-87
2022/07/14 03:39:05;;;;;;;1.90;0.60;;;;;;;16.10;66.68;101294.38;6124528;23;20005;-87
2022/07/14 03:41:31;;;;;;;3.38;0.73;;;;;;;16.06;68.47;101287.63;6124441;23;20417;-87
2022/07/14 03:43:56;;;;;;;1.60;0.60;;;;;;;16.09;66.95;101290.00;6124613;23;20010;-86
2022/07/14 03:46:22;;;;;;;1.77;0.43;;;;;;;16.05;67.15;101296.50;6124646;23;20010;-86
2022/07/14 03:48:47;;;;;;;0.70;0.50;;;;;;;15.97;68.34;101293.63;6124560;23;20086;-87
2022/07/14 03:51:13;;;;;;;1.85;1.20;;;;;;;15.89;68.82;101290.72;6124167;23;20005;-87
2022/07/14 03:53:38;;;;;;;1.98;0.80;;;;;;;15.88;69.24;101287.22;6124240;23;20052;-85
2022/07/14 03:56:04;;;;;;;1.65;0.70;;;;;;;15.75;69.07;101294.41;6124441;23;20029;-87
2022/07/14 03:58:30;;;;;;;2.15;0.63;;;;;;;15.66;69.41;101296.75;6122742;23;20036;-87
2022/07/14 04:00:55;;;;;;;1.52;0.77;;;;;;;15.59;70.68;101292.03;6124426;23;20002;-86
2022/07/14 04:03:21;;;;;;;2.03;0.70;;;;;;;15.56;67.37;101295.78;6124424;23;20005;-86
2022/07/14 04:05:46;;;;;;;1.15;0.70;;;;;;;15.24;68.91;101293.72;6123031;23;20002;-87
2022/07/14 04:08:12;;;;;;;1.52;0.52;;;;;;;15.46;69.12;101300.91;6123739;23;20021;-85
2022/07/14 04:10:38;;;;;;;1.77;0.50;;;;;;;15.51;69.64;101294.44;6124325;23;20005;-86
2022/07/14 04:13:03;;;;;;;1.95;0.63;;;;;;;15.41;69.49;101289.81;6123991;23;19999;-86
2022/07/14 04:15:30;;;;;;;1.10;0.50;;;;;;;15.35;68.72;101290.25;6124062;23;20002;-86
2022/07/14 04:17:56;;;;;;;2.22;1.10;;;;;;;15.22;68.10;101294.75;6123956;23;19994;-86
2022/07/14 04:20:22;;;;;;;2.13;0.70;;;;;;;15.00;69.51;101292.84;6123548;23;20009;-86
2022/07/14 04:22:48;;;;;;;1.67;0.73;;;;;;;15.25;69.96;101300.69;6124330;23;20006;-87
2022/07/14 04:25:14;;;;;;;3.83;0.70;;;;;;;15.30;70.01;101296.84;6124340;23;20009;-87
2022/07/14 04:27:40;;;;;;;2.92;0.70;;;;;;;15.31;69.50;101303.84;6125065;23;20392;-87
2022/07/14 04:30:07;;;;;;;1.05;0.65;;;;;;;15.33;70.41;101299.28;6126102;23;20017;-87
2022/07/14 04:32:32;;;;;;;1.38;0.75;;;;;;;15.36;69.66;101294.59;6125587;23;20009;-84
2022/07/14 04:34:58;;;;;;;2.05;0.80;;;;;;;15.32;69.70;101306.34;6126390;23;20146;-85
2022/07/14 04:37:23;;;;;;;3.22;0.90;;;;;;;15.29;68.50;101296.00;6126818;23;20012;-84
2022/07/14 04:39:48;;;;;;;1.70;0.70;;;;;;;15.30;70.63;101302.97;6126116;23;20013;-84
2022/07/14 04:42:14;;;;;;;3.00;0.88;;;;;;;15.35;70.78;101303.50;6126478;23;20077;-84
2022/07/14 04:44:41;;;;;;;1.85;0.50;;;;;;;15.19;71.36;101301.13;6125921;23;20006;-84
2022/07/14 04:47:07;;;;;;;2.63;0.60;;;;;;;15.18;72.24;101307.38;6126109;23;20009;-84
2022/07/14 04:52:16;;;;;;;2.70;0.90;;;;;;;15.29;70.76;101298.66;6126229;23;20070;-84
2022/07/14 04:54:42;;;;;;;1.63;0.77;;;;;;;15.36;71.33;101307.81;6126174;23;20081;-84
2022/07/14 04:57:08;;;;;;;3.47;1.33;;;;;;;15.40;71.33;101305.78;6126050;23;20077;-83
2022/07/14 04:59:33;;;;;;;2.65;0.80;;;;;;;15.42;71.76;101310.03;6124878;23;20038;-84
2022/07/14 05:02:00;;;;;;;1.05;0.90;;;;;;;15.35;72.06;101306.16;6125794;23;20002;-84
2022/07/14 05:04:26;;;;;;;1.95;0.70;;;;;;;15.42;73.27;101307.38;6126146;23;20029;-83
2022/07/14 05:06:51;;;;;;;2.03;0.77;;;;;;;15.32;72.71;101303.72;6125967;23;20013;-84
2022/07/14 05:09:18;;;;;;;3.72;1.00;;;;;;;15.42;73.55;101312.69;6126060;23;20513;-84
2022/07/14 05:11:44;;;;;;;0.80;0.57;;;;;;;15.52;73.18;101326.09;6126129;23;20001;-83
2022/07/14 05:14:09;;;;;;;1.42;0.75;;;;;;;15.55;73.65;101317.91;6125719;23;20006;-84
2022/07/14 05:16:35;;;;;;;1.20;0.60;;;;;;;15.59;74.49;101323.81;6126230;23;20017;-83
2022/07/14 05:19:01;;;;;;;1.92;0.73;;;;;;;15.64;74.39;101324.31;6125918;23;20045;-83
2022/07/14 05:21:26;;;;;;;1.13;0.60;;;;;;;15.69;74.26;101326.63;6126024;23;20006;-83
2022/07/14 05:23:52;;;;;;;1.80;0.70;;;;;;;15.65;73.47;101320.69;6125861;23;20092;-83
2022/07/14 05:26:17;;;;;;;2.08;0.80;;;;;;;15.65;73.48;101321.53;6126147;23;20329;-83
2022/07/14 05:28:43;;;;;;;1.33;0.60;;;;;;;15.76;74.91;101327.88;6125212;23;20006;-85
2022/07/14 05:31:09;;;;;;;3.30;1.55;;;;;;;15.77;74.68;101318.97;6123868;23;20080;-83
2022/07/14 05:33:35;;;;;;;1.05;0.60;;;;;;;15.78;75.65;101318.03;6125485;23;20006;-83
2022/07/14 05:36:01;;;;;;;2.00;0.70;;;;;;;15.77;76.02;101325.09;6125929;23;20021;-83
2022/07/14 05:38:27;;;;;;;1.33;0.65;;;;;;;15.81;76.11;101320.41;6125586;23;20002;-83
2022/07/14 05:40:52;;;;;;;1.70;0.82;;;;;;;15.84;75.50;101328.97;6125643;23;20057;-83
2022/07/14 05:43:19;;;;;;;3.90;1.20;;;;;;;15.91;77.11;101321.41;6124932;23;20085;-82
2022/07/14 05:45:44;;;;;;;1.05;0.70;;;;;;;15.98;77.03;101327.09;6125564;23;20001;-84
2022/07/14 05:48:10;;;;;;;2.70;0.77;;;;;;;15.99;77.17;101318.19;6125488;23;20021;-84
2022/07/14 05:50:35;;;;;;;1.60;0.80;;;;;;;16.10;77.47;101331.47;6125333;23;20136;-84
2022/07/14 05:53:01;;;;;;;3.00;1.30;;;;;;;16.17;76.47;101342.41;6125624;23;20006;-85
2022/07/14 05:55:26;;;;;;;1.38;0.88;;;;;;;16.28;76.59;101338.97;6125592;23;20417;-84
2022/07/14 05:57:51;;;;;;;0.70;0.70;;;;;;;16.32;76.65;101338.59;6125618;23;20460;-84
2022/07/14 06:00:17;;;;;;;2.22;0.77;;;;;;;16.34;76.14;101347.28;6126200;23;20325;-85
2022/07/14 06:02:43;;;;;;;3.97;1.38;;;;;;;16.51;76.18;101351.28;6125419;23;20420;-83
2022/07/14 06:05:08;;;;;;;1.88;0.85;;;;;;;16.63;74.29;101350.31;6125422;23;20010;-85
2022/07/14 06:07:33;;;;;;;2.90;0.80;;;;;;;16.74;75.51;101362.72;6125360;23;20006;-85
2022/07/14 06:10:01;;;;;;;1.23;0.98;;;;;;;16.90;73.71;101358.88;6124844;23;20010;-85
2022/07/14 06:12:26;;;;;;;0.70;0.70;;;;;;;17.02;71.82;101361.41;6123951;23;20318;-85
2022/07/14 06:14:52;;;;;;;4.22;0.80;;;;;;;17.23;72.19;101357.97;6125573;23;20017;-86
2022/07/14 06:17:17;;;;;;;3.10;1.08;;;;;;;17.24;71.24;101354.38;6125544;23;20382;-85
2022/07/14 06:19:42;;;;;;;1.30;0.77;;;;;;;17.75;70.65;101359.03;6123662;23;20318;-86
2022/07/14 06:22:08;;;;;;;2.08;1.17;;;;;;;17.94;69.38;101360.16;6125322;23;20102;-85
2022/07/14 06:24:36;;;;;;;1.65;0.77;;;;;;;18.87;63.32;101366.44;6124124;23;20073;-85
2022/07/14 06:27:01;;;;;;;1.48;0.68;;;;;;;18.80;63.76;101363.47;6125363;23;20329;-85
2022/07/14 06:29:27;;;;;;;4.72;0.80;;;;;;;19.17;60.61;101374.38;6125612;23;20001;-85
2022/07/14 06:31:55;;;;;;;1.55;0.50;;;;;;;20.21;57.08;101364.00;6124497;23;20005;-85
2022/07/14 06:34:21;;;;;;;3.13;1.08;;;;;;;20.19;56.21;101371.31;6147842;23;20002;-83
2022/07/14 06:36:47;;;;;;;1.65;0.70;;;;;;;21.99;50.46;101361.03;6124432;23;20013;-84
2022/07/14 06:39:13;;;;;;;2.95;0.70;;;;;;;23.64;46.23;101359.94;6124321;23;20010;-86
2022/07/14 06:41:39;;;;;;;2.45;0.55;;;;;;;26.28;40.19;101358.53;6124935;23;20041;-86
2022/07/14 06:44:04;;;;;;;2.05;0.60;;;;;;;28.04;37.15;101354.78;6123801;23;20021;-86
2022/07/14 06:46:32;;;;;;;1.42;0.68;;;;;;;31.65;30.75;101360.22;6123915;23;20002;-85
2022/07/14 06:48:57;;;;;;;2.65;0.43;;;;;;;34.26;26.45;101353.03;6123076;23;20246;-85
2022/07/14 06:51:23;;;;;;;1.38;0.55;;;;;;;36.08;23.96;101349.53;6123621;23;20002;-84
2022/07/14 06:53:48;;;;;;;3.85;0.75;;;;;;;37.35;22.83;101348.59;6123607;23;20006;-84
2022/07/14 06:56:13;;;;;;;1.20;0.47;;;;;;;36.81;22.97;101346.66;6123690;23;19998;-84
2022/07/14 06:58:39;;;;;;;1.42;0.40;;;;;;;38.44;21.18;101338.06;6123942;23;20065;-85
2022/07/14 07:01:04;;;;;;;0.95;0.40;;;;;;;38.34;20.79;101349.81;6124640;23;19998;-85
2022/07/14 07:03:29;;;;;;;1.55;0.40;;;;;;;39.12;19.78;101339.91;6124692;23;19998;-86
2022/07/14 07:08:38;;;;;;;;;;;;;;;41.46;18.82;101338.50;6122559;23;19972;-84
2022/07/14 07:11:04;;;;;;;2.40;0.60;;;;;;;40.13;19.32;101338.16;6124450;23;20320;-85
2022/07/14 07:13:29;;;;;;;;;;;;;;;42.29;18.36;101339.28;6121451;23;20292;-85
2022/07/14 07:15:54;;;;;;;;;;;;;;;42.98;17.16;101325.91;6119360;23;19920;-85
2022/07/14 07:18:20;;;;;;;;;;;;;;;43.70;17.09;101331.00;6118668;23;20728;-84
2022/07/14 07:20:45;;;;;;;;;;;;;;;42.28;17.48;101338.44;6119056;23;19920;-84
2022/07/14 07:23:10;;;;;;;;;;;;;;;42.25;16.63;101332.72;6118468;23;20360;-84
2022/07/14 07:25:35;;;;;;;;;;;;;;;41.70;18.00;101331.09;6119274;23;19936;-85
2022/07/14 07:28:01;;;;;;;;;;;;;;;42.95;17.18;101326.50;6119546;23;19919;-85
2022/07/14 07:30:26;;;;;;;;;;;;;;;42.44;17.30;101330.78;6117321;23;20000;-85
2022/07/14 07:32:51;;;;;;;;;;;;;;;44.67;15.59;101324.59;6118226;23;19919;-85
2022/07/14 07:35:18;;;;;;;;;;;;;;;44.57;16.18;101333.13;6119574;23;19947;-84
2022/07/14 07:37:43;;;;;;;6.70;0.57;;;;;;;41.49;18.21;101321.38;6117699;23;20256;-85
2022/07/14 07:40:09;;;;;;;;;;;;;;;38.91;20.64;101328.06;6119503;23;20010;-85
2022/07/14 07:42:34;;;;;;;;;;;;;;;34.71;23.88;101331.38;6119090;23;19916;-84
2022/07/14 07:45:00;;;;;;;;;;;;;;;32.71;27.22;101321.13;6119481;23;19912;-85
2022/07/14 07:47:26;;;;;;;9.13;0.90;;;;;;;32.62;26.77;101332.53;6118429;23;19913;-86
2022/07/14 07:49:52;;;;;;;3.50;0.55;;;;;;;33.18;27.50;101325.94;6120258;23;20037;-85
2022/07/14 07:52:18;;;;;;;5.70;0.65;;;;;;;32.12;28.82;101325.34;6119403;23;20065;-85
2022/07/14 07:54:44;;;;;;;2.85;0.52;;;;;;;31.34;28.65;101321.16;6119276;23;20073;-85
2022/07/14 07:57:10;;;;;;;3.40;0.55;;;;;;;31.15;29.21;101322.97;6120145;23;20002;-85
2022/07/14 07:59:36;;;;;;;4.82;0.65;;;;;;;32.36;28.33;101329.03;6116624;23;20365;-84
2022/07/14 08:02:01;;;;;;;2.38;0.57;;;;;;;31.49;29.24;101327.13;6119967;23;20005;-85
2022/07/14 08:04:26;;;;;;;4.72;1.38;;;;;;;31.16;29.87;101325.47;6119922;23;20009;-84
2022/07/14 08:06:52;;;;;;;5.35;0.93;;;;;;;32.14;29.20;101332.22;6120622;23;20061;-83
2022/07/14 08:09:17;;;;;;;2.30;0.77;;;;;;;31.41;29.12;101332.81;6118349;23;20073;-82
2022/07/14 08:11:43;;;;;;;4.00;0.70;;;;;;;31.33;30.37;101333.09;6121470;23;20009;-82
2022/07/14 08:14:47;;;;;;;1.27;0.47;;;;;;;31.19;29.70;101332.34;6120291;23;20036;-82
2022/07/14 08:16:56;;;;;;;6.22;0.70;;;;;;;31.71;29.20;101330.28;6121000;23;20017;-82
2022/07/14 08:19:22;;;;;;;2.40;0.60;;;;;;;31.36;29.48;101324.47;6142610;23;20016;-82
2022/07/14 08:21:47;;;;;;;3.17;0.60;;;;;;;30.76;30.94;101333.78;6120611;23;20014;-82
2022/07/14 08:24:13;;;;;;;3.88;0.40;;;;;;;32.11;29.47;101329.97;6120203;23;20010;-82
2022/07/14 08:26:39;;;;;;;1.80;0.45;;;;;;;32.04;29.23;101331.06;6121603;23;20006;-82
2022/07/14 08:29:05;;;;;;;4.20;0.45;;;;;;;32.10;30.36;101330.19;6120260;23;20010;-82
2022/07/14 08:31:31;;;;;;;2.58;0.50;;;;;;;32.74;29.15;101326.09;6120793;23;20014;-82
2022/07/14 08:33:56;;;;;;;5.35;0.63;;;;;;;32.27;29.10;101320.38;6119134;23;20017;-82
2022/07/14 08:36:22;;;;;;;4.90;0.75;;;;;;;31.42;30.36;101323.63;6120557;23;20016;-82
2022/07/14 08:38:47;;;;;;;6.05;0.60;;;;;;;32.05;29.78;101321.84;6119995;23;20014;-82
2022/07/14 08:41:13;;;;;;;3.05;0.60;;;;;;;32.40;29.19;101325.63;6120820;23;20013;-82
2022/07/14 08:43:39;;;;;;;1.15;0.40;;;;;;;31.85;30.34;101322.84;6120459;23;20085;-82
2022/07/14 08:46:05;;;;;;;3.08;0.77;;;;;;;31.36;30.38;101316.34;6120693;23;20085;-82
2022/07/14 08:48:31;;;;;;;3.22;0.60;;;;;;;32.56;29.73;101312.53;6120325;23;20096;-82
2022/07/14 08:50:58;;;;;;;2.10;0.60;;;;;;;33.11;29.41;101317.84;6120427;23;20081;-82
2022/07/14 08:53:26;;;;;;;2.30;0.82;;;;;;;32.73;29.25;101313.56;6120234;23;20084;-82
2022/07/14 08:55:52;;;;;;;3.00;0.93;;;;;;;33.64;28.05;101312.66;6120791;23;20012;-82
2022/07/14 08:58:17;;;;;;;2.72;0.50;;;;;;;33.80;27.68;101311.94;6120207;23;20081;-82
2022/07/14 09:00:43;;;;;;;4.43;0.70;;;;;;;32.71;29.20;101310.22;6120140;23;20429;-81
2022/07/14 09:03:09;;;;;;;2.10;0.73;;;;;;;33.51;28.42;101297.34;6120913;23;20028;-81
2022/07/14 09:05:37;;;;;;;4.13;1.15;;;;;;;33.24;28.43;101307.84;6120967;23;20006;-82
2022/07/14 09:08:03;;;;;;;3.58;0.80;;;;;;;33.16;28.68;101303.56;6117987;23;20010;-82
2022/07/14 09:10:28;;;;;;;3.08;0.93;;;;;;;32.04;29.55;101312.06;6120086;23;20009;-82
2022/07/14 09:13:14;;;;;;;4.50;0.80;;;;;;;32.53;30.32;101318.41;6120268;23;20009;-82
2022/07/14 09:15:46;;;;;;;2.92;0.50;;;;;;;33.78;27.95;101309.44;6118385;23;20040;-82
2022/07/14 09:18:28;;;;;;;5.15;0.93;;;;;;;33.47;28.50;101320.66;6120385;23;20002;-82
2022/07/14 09:20:55;;;;;;;2.63;0.85;;;;;;;33.76;28.80;101313.47;6120424;23;20441;-82
2022/07/14 09:23:32;;;;;;;3.92;1.15;;;;;;;33.46;27.93;101310.84;6119992;23;20010;-82
2022/07/14 09:26:10;;;;;;;1.70;0.60;;;;;;;34.23;28.00;101315.38;6120937;23;20077;-81
2022/07/14 09:28:40;;;;;;;3.53;0.90;;;;;;;34.14;27.07;101312.16;6120237;23;20475;-81
2022/07/14 09:31:17;;;;;;;9.43;0.80;;;;;;;34.63;28.24;101314.53;6120106;23;20017;-82
2022/07/14 09:33:43;;;;;;;1.92;0.50;;;;;;;34.26;26.98;101304.78;6120425;23;20010;-81
2022/07/14 09:36:20;;;;;;;5.35;0.88;;;;;;;34.16;27.60;101308.16;6120688;23;20073;-82
2022/07/14 09:38:45;;;;;;;2.97;0.80;;;;;;;34.59;27.48;101314.19;6119094;23;20010;-82
2022/07/14 09:41:11;;;;;;;2.97;0.77;;;;;;;34.24;27.95;101309.66;6120424;23;20016;-82
2022/07/14 09:43:36;;;;;;;1.85;0.47;;;;;;;34.02;27.84;101308.63;6120230;23;20030;-82
2022/07/14 09:46:01;;;;;;;3.72;0.80;;;;;;;33.86;26.16;101311.00;6120481;23;20352;-82
2022/07/14 09:48:27;;;;;;;4.72;0.70;;;;;;;33.92;27.82;101310.03;6120383;23;20417;-82
2022/07/14 09:50:57;;;;;;;4.00;1.08;;;;;;;33.28;27.69;101314.47;6118237;23;20010;-82
2022/07/14 09:53:36;;;;;;;3.25;0.43;;;;;;;34.21;27.69;101312.88;6119199;23;20314;-82
2022/07/14 09:56:04;;;;;;;3.13;0.98;;;;;;;34.50;26.98;101316.50;6120778;23;20012;-82
2022/07/14 09:58:32;;;;;;;2.50;0.75;;;;;;;33.15;28.40;101305.44;6120160;23;20083;-82
2022/07/14 10:01:00;;;;;;;3.95;0.80;;;;;;;34.57;26.96;101308.97;6119456;23;20438;-82
2022/07/14 10:03:28;;;;;;;3.30;0.70;;;;;;;34.05;26.58;101313.59;6119911;23;20017;-82
2022/07/14 10:05:55;;;;;;;3.15;1.00;;;;;;;33.41;27.81;101314.25;6120201;23;20098;-82
2022/07/14 10:08:28;;;;;;;3.58;0.60;;;;;;;34.08;26.53;101318.56;6119114;23;20504;-81
2022/07/14 10:10:55;;;;;;;2.85;1.25;;;;;;;34.99;26.88;101309.78;6120166;23;20014;-81
2022/07/14 10:13:21;;;;;;;2.55;0.85;;;;;;;34.76;25.89;101317.03;6119866;23;20010;-82
2022/07/14 10:15:54;;;;;;;1.83;0.50;;;;;;;34.16;26.68;101318.22;6119385;23;20016;-82
2022/07/14 10:18:21;;;;;;;6.28;0.70;;;;;;;32.80;28.84;101317.03;6119991;23;20023;-82
2022/07/14 10:20:49;;;;;;;6.13;0.63;;;;;;;32.60;29.93;101321.88;6120477;23;20014;-82
2022/07/14 10:23:17;;;;;;;5.90;0.95;;;;;;;32.67;28.45;101319.91;6118732;23;20085;-82
2022/07/14 10:25:46;;;;;;;2.28;0.63;;;;;;;33.96;27.09;101316.66;6119163;23;20039;-82
2022/07/14 10:28:15;;;;;;;3.95;0.95;;;;;;;32.92;28.85;101327.09;6118671;23;20418;-82
2022/07/14 10:30:53;;;;;;;3.35;0.57;;;;;;;32.73;29.15;101321.72;6120319;23;20073;-82
2022/07/14 10:33:32;;;;;;;4.95;0.95;;;;;;;33.46;28.32;101322.56;6119313;23;20010;-83
2022/07/14 10:36:01;;;;;;;2.83;0.70;;;;;;;34.03;26.81;101321.19;6119964;23;20008;-82
2022/07/14 10:38:39;;;;;;;8.68;1.15;;;;;;;32.08;29.05;101316.81;6118645;23;20514;-82
2022/07/14 10:41:14;;;;;;;2.55;0.70;;;;;;;32.62;28.64;101322.47;6119956;23;20006;-82
2022/07/14 10:43:54;;;;;;;2.30;0.80;;;;;;;32.31;29.28;101321.59;6119357;23;20034;-82
2022/07/14 10:46:40;;;;;;;6.22;1.30;;;;;;;30.47;31.66;101337.88;6119660;23;20020;-82
2022/07/14 10:49:08;;;;;;;2.97;0.60;;;;;;;30.91;31.63;101338.16;6118421;23;20010;-82
2022/07/14 10:51:42;;;;;;;6.65;1.00;;;;;;;32.30;29.99;101332.66;6118741;23;20033;-82
2022/07/14 10:54:10;;;;;;;2.00;0.50;;;;;;;33.04;28.77;101324.41;6120183;23;20017;-82
2022/07/14 10:56:37;;;;;;;1.60;0.50;;;;;;;31.68;30.43;101330.75;6119553;23;20065;-82
2022/07/14 10:59:24;;;;;;;1.05;0.45;;;;;;;32.68;28.86;101321.56;6118464;23;20018;-82
2022/07/14 11:02:14;;;;;;;1.95;0.73;;;;;;;32.30;29.10;101317.19;6119515;23;20021;-82
2022/07/14 11:05:12;;;;;;;4.55;0.88;;;;;;;31.25;31.15;101322.50;6119580;23;20069;-81
2022/07/14 11:08:07;;;;;;;3.58;0.80;;;;;;;30.95;31.97;101334.78;6115256;23;20204;-81
2022/07/14 11:10:35;;;;;;;4.15;1.08;;;;;;;30.29;32.41;101335.81;6119256;23;20056;-81
2022/07/14 11:13:04;;;;;;;4.15;1.13;;;;;;;32.27;29.60;101331.25;6118909;23;20009;-81
2022/07/14 11:15:59;;;;;;;2.63;0.73;;;;;;;33.52;29.86;101326.22;6119210;23;20381;-81
2022/07/14 11:18:28;;;;;;;8.63;0.75;;;;;;;33.05;29.43;101324.19;6119317;23;20430;-81
2022/07/14 11:21:13;;;;;;;4.50;0.90;;;;;;;32.35;29.80;101327.41;6119535;23;20520;-81
2022/07/14 11:23:48;;;;;;;5.38;0.93;;;;;;;33.02;29.70;101321.94;6118851;23;20001;-81
2022/07/14 11:26:40;;;;;;;3.28;1.10;;;;;;;32.73;29.42;101332.59;6119570;23;20072;-81
2022/07/14 11:29:09;;;;;;;2.88;0.88;;;;;;;32.17;29.70;101330.91;6119055;23;20119;-81
2022/07/14 11:31:49;;;;;;;3.05;0.90;;;;;;;32.50;28.91;101319.66;6119257;23;20009;-81
2022/07/14 11:37:10;;;;;;;2.15;0.60;;;;;;;32.94;28.09;101320.38;6119380;23;20356;-79
2022/07/14 11:39:37;;;;;;;4.22;1.08;;;;;;;31.60;29.85;101331.03;6118619;23;20017;-79
2022/07/14 11:42:03;;;;;;;4.03;1.00;;;;;;;31.77;29.83;101331.28;6119464;23;20442;-80
2022/07/14 11:44:40;;;;;;;1.95;0.60;;;;;;;31.15;30.06;101326.50;6118717;23;20006;-81